Time;durP1;ratioP1;P1;durP2;ratioP2;P2;SDS_P1;SDS_P2;PMS_P1;PMS_P2;Temp;Humidity;BMP_temperature;BMP_pressure;BME280_temperature;BME280_humidity;BME280_pressure;Samples;Min_cycle;Max_cycle;Signal;HPM_P1;HPM_P2
2021/09/23 00:01:12;;;;;;;37.85;26.23;;;14.00;99.90;;;;;;5094676;28;20107;-69
2021/09/23 00:06:03;;;;;;;39.88;26.98;;;13.90;99.90;;;;;;5094885;28;20072;-69
2021/09/23 00:08:30;;;;;;;43.72;28.63;;;13.90;99.90;;;;;;5094404;28;20542;-69
2021/09/23 00:10:56;;;;;;;42.83;28.45;;;13.90;99.90;;;;;;5094450;28;20188;-69
2021/09/23 00:13:25;;;;;;;40.45;27.33;;;13.90;99.90;;;;;;5094306;28;20047;-69
2021/09/23 00:15:51;;;;;;;40.17;28.77;;;13.90;99.90;;;;;;5094292;28;20488;-69
2021/09/23 00:18:18;;;;;;;38.85;29.25;;;13.90;99.90;;;;;;5094508;28;20081;-69
2021/09/23 00:20:47;;;;;;;43.08;29.10;;;13.90;99.90;;;;;;5093980;28;20085;-69
2021/09/23 00:23:15;;;;;;;39.63;28.67;;;13.80;99.90;;;;;;5092914;28;20119;-69
2021/09/23 00:25:40;;;;;;;41.38;28.27;;;13.80;99.90;;;;;;5092625;28;20106;-69
2021/09/23 00:28:08;;;;;;;36.78;27.90;;;13.80;99.90;;;;;;5092573;28;20122;-69
2021/09/23 00:30:34;;;;;;;42.70;29.52;;;13.80;99.90;;;;;;5093685;28;20075;-69
2021/09/23 00:33:00;;;;;;;40.97;29.90;;;13.80;99.90;;;;;;5092496;28;20115;-69
2021/09/23 00:35:25;;;;;;;34.92;27.05;;;13.80;99.90;;;;;;5093704;28;20148;-69
2021/09/23 00:37:51;;;;;;;40.28;30.48;;;13.80;99.90;;;;;;5093566;28;20044;-69
2021/09/23 00:40:18;;;;;;;39.05;29.40;;;13.70;99.90;;;;;;5092129;28;20178;-69
2021/09/23 00:42:47;;;;;;;42.08;29.33;;;13.70;99.90;;;;;;5093501;28;20438;-69
2021/09/23 00:45:14;;;;;;;35.63;27.33;;;13.70;99.90;;;;;;5093829;28;20036;-69
2021/09/23 00:47:39;;;;;;;38.30;28.45;;;13.70;99.90;;;;;;5094078;28;20039;-69
2021/09/23 00:50:07;;;;;;;38.58;28.20;;;13.70;99.90;;;;;;5093268;28;20035;-69
2021/09/23 00:52:35;;;;;;;43.67;28.48;;;13.70;99.90;;;;;;5092072;28;20105;-69
2021/09/23 00:55:00;;;;;;;41.25;28.13;;;13.60;99.90;;;;;;5092362;28;20036;-69
2021/09/23 00:57:26;;;;;;;39.83;28.05;;;13.60;99.90;;;;;;5093572;28;20090;-69
2021/09/23 00:59:53;;;;;;;45.63;28.67;;;13.60;99.90;;;;;;5091997;28;20048;-69
2021/09/23 01:02:20;;;;;;;38.85;28.35;;;13.70;99.90;;;;;;5093747;28;20060;-69
2021/09/23 01:04:45;;;;;;;43.75;31.00;;;13.60;99.90;;;;;;5093166;28;20056;-69
2021/09/23 01:07:12;;;;;;;45.30;31.50;;;13.60;99.90;;;;;;5092794;28;20051;-69
2021/09/23 01:09:42;;;;;;;44.55;32.08;;;13.60;99.90;;;;;;5093194;28;20071;-69
2021/09/23 01:12:08;;;;;;;43.10;30.85;;;13.60;99.90;;;;;;5093145;28;20438;-69
2021/09/23 01:14:34;;;;;;;47.33;31.77;;;13.60;99.90;;;;;;5093401;28;20027;-69
2021/09/23 01:16:59;;;;;;;48.58;32.55;;;13.50;99.90;;;;;;5092916;28;20506;-69
2021/09/23 01:19:25;;;;;;;48.92;32.65;;;13.50;99.90;;;;;;5092736;28;20044;-69
2021/09/23 01:21:51;;;;;;;46.40;32.25;;;13.50;99.90;;;;;;5093240;28;20036;-69
2021/09/23 01:24:16;;;;;;;47.20;31.00;;;13.50;99.90;;;;;;5091742;28;20036;-69
2021/09/23 01:26:47;;;;;;;52.38;31.45;;;13.50;99.90;;;;;;5092023;28;20442;-69
2021/09/23 01:29:13;;;;;;;45.33;32.03;;;13.40;99.90;;;;;;5091990;28;20124;-69
2021/09/23 01:31:38;;;;;;;49.35;32.50;;;13.50;99.90;;;;;;5091944;28;20052;-69
2021/09/23 01:34:04;;;;;;;45.47;31.13;;;13.50;99.90;;;;;;5092861;28;20090;-69
2021/09/23 01:36:30;;;;;;;51.85;31.30;;;13.50;99.90;;;;;;5091718;28;20040;-69
2021/09/23 01:38:55;;;;;;;46.80;31.98;;;13.40;99.90;;;;;;5091311;28;20044;-70
2021/09/23 01:41:21;;;;;;;49.50;32.42;;;13.40;99.90;;;;;;5093194;28;20036;-69
2021/09/23 01:43:46;;;;;;;50.72;31.65;;;13.40;99.90;;;;;;5092911;28;20450;-69
2021/09/23 01:46:12;;;;;;;49.25;30.58;;;13.40;99.90;;;;;;5092998;28;20032;-69
2021/09/23 01:48:38;;;;;;;50.28;32.53;;;13.40;99.90;;;;;;5092462;28;20036;-69
2021/09/23 01:51:03;;;;;;;47.78;30.92;;;13.40;99.90;;;;;;5093056;28;20436;-69
2021/09/23 01:53:29;;;;;;;47.38;31.95;;;13.30;99.90;;;;;;5093214;28;20093;-69
2021/09/23 01:55:54;;;;;;;48.08;31.40;;;13.30;99.90;;;;;;5093200;28;20055;-69
2021/09/23 01:58:20;;;;;;;51.15;32.80;;;13.30;99.90;;;;;;5091349;28;20399;-69
2021/09/23 02:00:45;;;;;;;49.35;31.52;;;13.40;99.90;;;;;;5092604;28;20077;-69
2021/09/23 02:03:11;;;;;;;51.60;31.98;;;13.40;99.90;;;;;;5093015;28;20040;-69
2021/09/23 02:05:37;;;;;;;45.72;31.95;;;13.30;99.90;;;;;;5091757;28;20063;-69
2021/09/23 02:08:03;;;;;;;48.10;31.35;;;13.30;99.90;;;;;;5092860;28;20046;-69
2021/09/23 02:10:28;;;;;;;46.83;31.67;;;13.30;99.90;;;;;;5091269;28;20122;-69
2021/09/23 02:12:55;;;;;;;50.75;33.47;;;13.30;99.90;;;;;;5092767;28;20044;-69
2021/09/23 02:15:21;;;;;;;48.88;31.55;;;13.30;99.90;;;;;;5093175;28;20048;-69
2021/09/23 02:17:47;;;;;;;48.50;31.67;;;13.40;99.90;;;;;;5095100;28;20052;-69
2021/09/23 02:20:13;;;;;;;49.53;33.58;;;13.40;99.90;;;;;;5094942;28;20411;-69
2021/09/23 02:22:39;;;;;;;50.38;32.92;;;13.40;99.90;;;;;;5096700;28;20107;-69
2021/09/23 02:25:05;;;;;;;53.78;30.95;;;13.40;99.90;;;;;;5096422;28;20032;-69
2021/09/23 02:27:31;;;;;;;48.88;31.42;;;13.40;99.90;;;;;;5096281;28;20048;-69
2021/09/23 02:29:56;;;;;;;50.20;33.78;;;13.40;99.90;;;;;;5095885;28;20078;-68
2021/09/23 02:32:22;;;;;;;49.83;31.35;;;13.40;99.90;;;;;;5096108;28;20036;-69
2021/09/23 02:34:48;;;;;;;52.17;32.03;;;13.40;99.90;;;;;;5096121;28;20077;-69
2021/09/23 02:37:13;;;;;;;46.63;31.55;;;13.40;99.90;;;;;;5096481;28;20036;-69
2021/09/23 02:39:39;;;;;;;49.95;31.65;;;13.50;99.90;;;;;;5096242;28;20104;-68
2021/09/23 02:42:04;;;;;;;52.80;33.05;;;13.50;99.90;;;;;;5094915;28;20054;-69
2021/09/23 02:44:30;;;;;;;55.72;31.95;;;13.50;99.90;;;;;;5095210;28;20051;-69
2021/09/23 02:46:56;;;;;;;55.15;32.92;;;13.50;99.90;;;;;;5094754;28;20074;-69
2021/09/23 02:49:21;;;;;;;46.42;32.13;;;13.50;99.90;;;;;;5095740;28;20040;-69
2021/09/23 02:51:47;;;;;;;50.60;31.45;;;13.60;99.90;;;;;;5095661;28;20503;-69
2021/09/23 02:54:12;;;;;;;50.75;32.80;;;13.50;99.90;;;;;;5096070;28;20047;-69
2021/09/23 02:56:38;;;;;;;50.08;33.65;;;13.50;99.90;;;;;;5094492;28;20039;-69
2021/09/23 02:59:04;;;;;;;53.63;33.53;;;13.50;99.90;;;;;;5095402;28;20035;-69
2021/09/23 03:01:29;;;;;;;50.50;32.42;;;13.50;99.90;;;;;;5095537;28;20040;-69
2021/09/23 03:03:55;;;;;;;49.92;31.30;;;13.50;99.90;;;;;;5095897;28;20032;-69
2021/09/23 03:06:21;;;;;;;52.05;30.95;;;13.50;99.90;;;;;;5095944;28;20059;-68
2021/09/23 03:08:46;;;;;;;53.80;35.28;;;13.50;99.90;;;;;;5095291;28;20036;-69
2021/09/23 03:11:12;;;;;;;46.95;31.90;;;13.40;99.90;;;;;;5096101;28;20040;-68
2021/09/23 03:13:38;;;;;;;50.55;32.45;;;13.50;99.90;;;;;;5095611;28;20035;-69
2021/09/23 03:16:04;;;;;;;47.90;31.45;;;13.50;99.90;;;;;;5095279;28;20082;-69
2021/09/23 03:18:29;;;;;;;52.80;33.85;;;13.50;99.90;;;;;;5095698;28;20044;-69
2021/09/23 03:20:56;;;;;;;53.38;31.17;;;13.50;99.90;;;;;;5094199;28;20055;-69
2021/09/23 03:23:21;;;;;;;56.53;34.05;;;13.50;99.90;;;;;;5095656;28;20377;-68
2021/09/23 03:25:49;;;;;;;55.10;35.50;;;13.50;99.90;;;;;;5095198;28;20050;-69
2021/09/23 03:28:15;;;;;;;53.92;34.08;;;13.50;99.90;;;;;;5094902;28;20040;-69
2021/09/23 03:30:40;;;;;;;52.17;33.35;;;13.50;99.90;;;;;;5093781;28;20111;-69
2021/09/23 03:33:08;;;;;;;55.25;34.75;;;13.50;99.90;;;;;;5094993;28;20405;-69
2021/09/23 03:35:34;;;;;;;57.97;35.50;;;13.50;99.90;;;;;;5095115;28;20036;-69
2021/09/23 03:38:00;;;;;;;52.90;34.40;;;13.50;99.90;;;;;;5093878;28;20051;-69
2021/09/23 03:40:26;;;;;;;56.90;34.22;;;13.50;99.90;;;;;;5094833;28;20036;-68
2021/09/23 03:42:52;;;;;;;51.78;33.75;;;13.50;99.90;;;;;;5093651;28;20044;-69
2021/09/23 03:45:19;;;;;;;53.17;33.55;;;13.50;99.90;;;;;;5094668;28;20101;-68
2021/09/23 03:47:45;;;;;;;54.78;36.05;;;13.50;99.90;;;;;;5094646;28;20547;-68
2021/09/23 03:50:11;;;;;;;55.38;35.17;;;13.50;99.90;;;;;;5093048;28;20132;-69
2021/09/23 03:52:38;;;;;;;59.63;35.78;;;13.50;99.90;;;;;;5093554;28;20043;-69
2021/09/23 03:55:05;;;;;;;59.40;36.15;;;13.50;99.90;;;;;;5094566;28;20040;-69
2021/09/23 03:57:31;;;;;;;50.72;34.45;;;13.50;99.90;;;;;;5094678;28;20040;-69
2021/09/23 03:59:56;;;;;;;51.47;33.97;;;13.40;99.90;;;;;;5094246;28;20051;-69
2021/09/23 04:02:22;;;;;;;51.90;34.88;;;13.40;99.90;;;;;;5094629;28;20040;-69
2021/09/23 04:04:48;;;;;;;57.97;35.53;;;13.40;99.90;;;;;;5094595;28;20047;-69
2021/09/23 04:07:13;;;;;;;58.05;37.00;;;13.50;99.90;;;;;;5093253;28;20036;-69
2021/09/23 04:09:39;;;;;;;61.60;37.38;;;13.40;99.90;;;;;;5094114;28;20040;-69
2021/09/23 04:12:05;;;;;;;57.90;36.90;;;13.40;99.90;;;;;;5094468;28;20496;-69
2021/09/23 04:14:31;;;;;;;58.38;34.72;;;13.50;99.90;;;;;;5092975;28;20047;-69
2021/09/23 04:16:57;;;;;;;63.17;37.45;;;13.40;99.90;;;;;;5094100;28;20047;-68
2021/09/23 04:19:23;;;;;;;60.03;37.25;;;13.40;99.90;;;;;;5075590;28;20055;-69
2021/09/23 04:21:48;;;;;;;56.67;37.13;;;13.50;99.90;;;;;;5094151;28;20036;-72
2021/09/23 04:24:15;;;;;;;59.25;36.90;;;13.40;99.90;;;;;;5093427;28;20117;-67
2021/09/23 04:26:41;;;;;;;60.55;37.45;;;13.50;99.90;;;;;;5093905;28;20028;-68
2021/09/23 04:29:06;;;;;;;61.53;37.28;;;13.40;99.90;;;;;;5093603;28;20068;-68
2021/09/23 04:31:32;;;;;;;58.75;36.58;;;13.40;99.90;;;;;;5093960;28;20472;-68
2021/09/23 04:33:58;;;;;;;62.72;38.10;;;13.40;99.90;;;;;;5092589;28;20051;-68
2021/09/23 04:36:23;;;;;;;64.05;38.83;;;13.40;99.90;;;;;;5093961;28;20032;-68
2021/09/23 04:38:49;;;;;;;65.72;39.33;;;13.40;99.90;;;;;;5091276;28;20052;-68
2021/09/23 04:41:15;;;;;;;61.53;39.75;;;13.40;99.90;;;;;;5093832;28;20032;-68
2021/09/23 04:43:41;;;;;;;61.72;37.50;;;13.40;99.90;;;;;;5092268;28;20039;-68
2021/09/23 04:46:08;;;;;;;71.47;40.45;;;13.40;99.90;;;;;;5093894;28;20039;-68
2021/09/23 04:48:35;;;;;;;66.97;41.00;;;13.40;99.90;;;;;;5093778;28;20368;-68
2021/09/23 04:51:01;;;;;;;63.72;40.90;;;13.40;99.90;;;;;;5093551;28;20039;-68
2021/09/23 04:53:27;;;;;;;69.03;41.00;;;13.40;99.90;;;;;;5094162;28;20088;-68
2021/09/23 04:55:53;;;;;;;66.75;39.85;;;13.50;99.90;;;;;;5092582;28;20051;-68
2021/09/23 04:58:19;;;;;;;71.60;41.30;;;13.40;99.90;;;;;;5091787;28;20404;-68
2021/09/23 05:00:44;;;;;;;69.18;41.55;;;13.40;99.90;;;;;;5092144;28;20036;-68
2021/09/23 05:03:10;;;;;;;72.45;40.55;;;13.40;99.90;;;;;;5092222;28;20102;-68
2021/09/23 05:05:38;;;;;;;69.82;41.97;;;13.50;99.90;;;;;;5092335;28;20044;-68
2021/09/23 05:08:04;;;;;;;68.50;39.83;;;13.50;99.90;;;;;;5092075;28;20056;-68
2021/09/23 05:10:30;;;;;;;70.70;43.08;;;13.50;99.90;;;;;;5091880;28;20105;-71
2021/09/23 05:12:55;;;;;;;80.07;42.83;;;13.50;99.90;;;;;;5092190;28;20366;-72
2021/09/23 05:15:21;;;;;;;72.05;42.08;;;13.50;99.90;;;;;;5092137;28;20065;-72
2021/09/23 05:17:48;;;;;;;79.20;44.65;;;13.60;99.90;;;;;;5092070;28;20473;-72
2021/09/23 05:20:14;;;;;;;77.22;44.63;;;13.70;99.90;;;;;;5074711;28;20047;-72
2021/09/23 05:22:40;;;;;;;76.35;45.30;;;13.60;99.90;;;;;;5092250;28;20082;-72
2021/09/23 05:25:06;;;;;;;76.72;44.92;;;13.70;99.90;;;;;;5075499;28;20079;-72
2021/09/23 05:27:32;;;;;;;79.30;43.38;;;13.70;99.90;;;;;;5092150;28;20097;-72
2021/09/23 05:30:00;;;;;;;79.53;45.95;;;13.70;99.90;;;;;;5092443;28;20036;-72
2021/09/23 05:32:26;;;;;;;82.80;45.22;;;13.80;99.90;;;;;;5091817;28;20044;-72
2021/09/23 05:34:52;;;;;;;72.32;43.40;;;13.80;99.90;;;;;;5092062;28;20044;-72
2021/09/23 05:37:18;;;;;;;79.15;43.85;;;13.80;99.90;;;;;;5092083;28;20507;-72
2021/09/23 05:39:44;;;;;;;80.03;45.03;;;13.80;99.90;;;;;;5091547;28;20040;-72
2021/09/23 05:42:10;;;;;;;76.38;43.58;;;13.80;99.90;;;;;;5091749;28;20047;-72
2021/09/23 05:44:36;;;;;;;77.30;42.55;;;13.80;99.90;;;;;;5091424;28;20507;-72
2021/09/23 05:47:01;;;;;;;75.75;44.65;;;13.80;99.90;;;;;;5091898;28;20051;-72
2021/09/23 05:49:27;;;;;;;79.00;46.38;;;13.80;99.90;;;;;;5093034;28;20032;-72
2021/09/23 05:51:55;;;;;;;77.50;45.42;;;13.80;99.90;;;;;;5097385;28;20518;-72
2021/09/23 05:54:22;;;;;;;77.90;44.10;;;13.90;99.90;;;;;;5097509;28;20040;-72
2021/09/23 05:56:47;;;;;;;75.07;44.70;;;13.80;99.90;;;;;;5095668;28;20151;-72
2021/09/23 05:59:13;;;;;;;73.38;44.75;;;13.90;99.90;;;;;;5096721;28;20071;-72
2021/09/23 06:01:38;;;;;;;85.68;44.40;;;13.90;99.90;;;;;;5097176;28;20040;-72
2021/09/23 06:04:04;;;;;;;77.50;45.70;;;13.90;99.90;;;;;;5097167;28;20474;-72
2021/09/23 06:06:30;;;;;;;82.88;46.75;;;13.90;99.90;;;;;;5096796;28;20119;-72
2021/09/23 06:08:55;;;;;;;81.18;45.63;;;14.00;99.90;;;;;;5095333;28;20044;-72
2021/09/23 06:11:21;;;;;;;84.20;46.88;;;14.00;99.90;;;;;;5096455;28;20044;-72
2021/09/23 06:13:47;;;;;;;82.05;46.45;;;14.00;99.90;;;;;;5095595;28;20090;-72
2021/09/23 06:16:13;;;;;;;77.32;45.80;;;14.00;99.90;;;;;;5078263;28;20549;-72
2021/09/23 06:18:39;;;;;;;83.95;47.47;;;14.10;99.90;;;;;;5094779;28;20040;-72
2021/09/23 06:21:06;;;;;;;89.80;47.00;;;14.10;99.90;;;;;;5096361;28;20036;-73
2021/09/23 06:23:32;;;;;;;75.18;45.25;;;14.10;99.90;;;;;;5096428;28;20048;-72
2021/09/23 06:25:58;;;;;;;77.60;45.33;;;14.10;99.90;;;;;;5096359;28;20036;-72
2021/09/23 06:28:23;;;;;;;72.65;43.05;;;14.10;99.90;;;;;;5096355;28;20040;-73
2021/09/23 06:30:49;;;;;;;79.65;48.88;;;14.20;99.90;;;;;;5096211;28;20044;-72
2021/09/23 06:33:14;;;;;;;80.32;45.25;;;14.20;99.90;;;;;;5096513;28;20044;-72
2021/09/23 06:35:40;;;;;;;77.80;44.97;;;14.20;99.90;;;;;;5096644;28;20040;-72
2021/09/23 06:38:06;;;;;;;76.22;43.78;;;14.20;99.90;;;;;;5095782;28;20039;-72
2021/09/23 06:40:31;;;;;;;72.28;44.30;;;14.20;99.90;;;;;;5095731;28;20472;-72
2021/09/23 06:42:57;;;;;;;69.72;41.90;;;14.20;99.90;;;;;;5095880;28;20063;-72
2021/09/23 06:45:23;;;;;;;76.82;44.05;;;14.20;99.90;;;;;;5095888;28;20396;-72
2021/09/23 06:47:48;;;;;;;73.95;44.83;;;14.20;99.90;;;;;;5094563;28;20044;-72
2021/09/23 06:50:14;;;;;;;72.20;42.30;;;14.20;99.90;;;;;;5095459;28;20036;-72
2021/09/23 06:52:41;;;;;;;71.13;41.40;;;14.30;99.90;;;;;;5096301;28;20024;-72
2021/09/23 06:55:08;;;;;;;75.38;44.08;;;14.30;99.90;;;;;;5095645;28;20028;-72
2021/09/23 06:57:34;;;;;;;69.38;43.15;;;14.30;99.90;;;;;;5095737;28;20044;-73
2021/09/23 06:59:59;;;;;;;70.18;43.03;;;14.30;99.90;;;;;;5095407;28;20036;-72
2021/09/23 07:02:25;;;;;;;73.32;42.65;;;14.30;99.90;;;;;;5095531;28;20043;-72
2021/09/23 07:04:51;;;;;;;71.75;43.17;;;14.30;99.90;;;;;;5094298;28;20407;-72
2021/09/23 07:07:16;;;;;;;67.38;43.53;;;14.50;99.90;;;;;;5095422;28;20043;-72
2021/09/23 07:09:44;;;;;;;69.45;41.95;;;14.70;99.90;;;;;;5095308;28;20115;-72
2021/09/23 07:12:11;;;;;;;69.60;40.80;;;14.90;99.90;;;;;;5095632;28;20068;-72
2021/09/23 07:14:36;;;;;;;66.80;40.65;;;15.00;99.90;;;;;;5095655;28;20040;-72
2021/09/23 07:17:02;;;;;;;69.93;43.10;;;15.10;99.90;;;;;;5095689;28;20040;-72
2021/09/23 07:19:29;;;;;;;67.10;40.85;;;15.20;99.90;;;;;;5094927;28;20044;-72
2021/09/23 07:21:55;;;;;;;62.95;39.97;;;15.20;99.90;;;;;;5095109;28;20480;-72
2021/09/23 07:24:21;;;;;;;70.70;43.28;;;15.20;99.90;;;;;;5093935;28;20048;-72
2021/09/23 07:26:46;;;;;;;63.08;39.75;;;15.20;99.90;;;;;;5095361;28;20044;-72
2021/09/23 07:29:15;;;;;;;65.43;38.13;;;15.20;99.90;;;;;;5093506;28;20393;-72
2021/09/23 07:31:42;;;;;;;66.80;41.42;;;15.20;99.90;;;;;;5076891;28;20062;-72
2021/09/23 07:34:08;;;;;;;62.72;40.58;;;15.20;99.90;;;;;;5095094;28;20040;-72
2021/09/23 07:36:33;;;;;;;63.50;39.58;;;15.10;99.90;;;;;;5094933;28;20114;-72
2021/09/23 07:38:59;;;;;;;59.30;36.25;;;15.30;99.90;;;;;;5094561;28;20545;-72
2021/09/23 07:41:24;;;;;;;61.22;34.75;;;15.30;99.90;;;;;;5094841;28;20119;-72
2021/09/23 07:43:50;;;;;;;56.35;34.08;;;15.40;99.90;;;;;;5095027;28;20046;-72
2021/09/23 07:46:16;;;;;;;51.90;31.95;;;15.40;99.90;;;;;;5093366;28;20040;-72
2021/09/23 07:48:42;;;;;;;47.70;29.85;;;15.50;99.90;;;;;;5094157;28;20044;-73
2021/09/23 07:51:07;;;;;;;46.67;27.85;;;15.60;99.90;;;;;;5093570;28;20123;-73
2021/09/23 07:53:33;;;;;;;42.13;27.20;;;15.60;99.90;;;;;;5094533;28;20452;-72
2021/09/23 07:56:00;;;;;;;38.92;23.02;;;15.70;99.90;;;;;;5093152;28;20048;-72
2021/09/23 07:58:25;;;;;;;37.33;23.08;;;15.80;99.90;;;;;;5093256;28;20040;-73
2021/09/23 08:00:52;;;;;;;34.10;21.02;;;15.80;99.90;;;;;;5094043;28;20055;-72
2021/09/23 08:03:17;;;;;;;26.88;18.00;;;15.90;99.90;;;;;;5094732;28;20510;-72
2021/09/23 08:05:43;;;;;;;30.80;15.98;;;16.00;99.90;;;;;;5092976;28;20071;-72
2021/09/23 08:08:09;;;;;;;18.85;12.75;;;16.10;99.90;;;;;;5094971;28;20094;-72
2021/09/23 08:10:37;;;;;;;13.95;8.90;;;16.20;99.90;;;;;;5094329;28;20111;-72
2021/09/23 08:13:03;;;;;;;9.93;6.88;;;16.40;99.90;;;;;;5094510;28;20123;-72
2021/09/23 08:15:30;;;;;;;14.68;6.72;;;16.60;99.90;;;;;;5093317;28;20499;-72
2021/09/23 08:17:57;;;;;;;6.50;4.18;;;16.60;99.90;;;;;;5093693;28;20047;-72
2021/09/23 08:20:23;;;;;;;9.25;4.55;;;16.80;99.90;;;;;;5093197;28;20040;-72
2021/09/23 08:22:48;;;;;;;8.95;4.20;;;16.80;99.90;;;;;;5094402;28;20039;-72
2021/09/23 08:25:14;;;;;;;7.68;3.45;;;16.80;99.90;;;;;;5094709;28;20044;-72
2021/09/23 08:27:40;;;;;;;6.00;3.47;;;16.80;99.90;;;;;;5093319;28;20456;-73
2021/09/23 08:30:06;;;;;;;9.00;3.47;;;16.80;99.90;;;;;;5094241;28;20117;-73
2021/09/23 08:32:32;;;;;;;7.47;3.50;;;16.70;99.90;;;;;;5093002;28;20086;-73
2021/09/23 08:34:58;;;;;;;6.45;4.00;;;16.70;99.90;;;;;;5094211;28;20511;-72
2021/09/23 08:37:23;;;;;;;6.05;3.67;;;16.70;99.90;;;;;;5094308;28;20032;-72
2021/09/23 08:39:49;;;;;;;6.70;3.10;;;16.80;99.90;;;;;;5092707;28;20480;-72
2021/09/23 08:42:15;;;;;;;6.72;3.20;;;16.80;99.90;;;;;;5094421;28;20035;-72
2021/09/23 08:44:42;;;;;;;8.27;3.58;;;16.90;99.90;;;;;;5094091;28;20036;-72
2021/09/23 08:47:08;;;;;;;5.60;3.25;;;16.90;99.90;;;;;;5094086;28;20046;-72
2021/09/23 08:49:33;;;;;;;9.35;2.95;;;17.00;99.90;;;;;;5093600;28;20036;-73
2021/09/23 08:51:59;;;;;;;8.95;3.20;;;17.10;99.90;;;;;;5093831;28;20082;-72
2021/09/23 08:54:25;;;;;;;6.38;3.20;;;17.20;99.90;;;;;;5092707;28;20050;-73
2021/09/23 08:56:50;;;;;;;9.35;3.17;;;17.20;99.90;;;;;;5093931;28;20542;-72
2021/09/23 08:59:16;;;;;;;13.90;3.22;;;17.30;99.90;;;;;;5093467;28;20466;-72
2021/09/23 09:01:50;;;;;;;8.63;3.10;;;17.40;99.90;;;;;;5092979;28;20070;-73
2021/09/23 09:04:16;;;;;;;10.95;3.28;;;17.60;99.90;;;;;;5093715;28;20085;-73
2021/09/23 09:06:58;;;;;;;5.45;2.70;;;17.60;99.90;;;;;;5094061;28;20052;-73
2021/09/23 09:09:24;;;;;;;6.85;2.80;;;17.60;99.90;;;;;;5093453;28;20082;-73
2021/09/23 09:11:54;;;;;;;7.75;2.63;;;17.70;99.90;;;;;;5093559;28;20456;-73
2021/09/23 09:14:30;;;;;;;6.50;3.08;;;17.70;99.90;;;;;;5093423;28;20040;-73
2021/09/23 09:17:05;;;;;;;5.43;2.45;;;17.70;99.90;;;;;;5093487;28;20040;-72
2021/09/23 09:19:51;;;;;;;5.55;2.78;;;17.80;99.90;;;;;;5093216;28;20055;-72
2021/09/23 09:22:22;;;;;;;4.88;2.22;;;17.80;99.90;;;;;;5092071;28;20552;-73
2021/09/23 09:25:04;;;;;;;6.68;2.55;;;18.00;99.90;;;;;;5093031;28;20488;-73
2021/09/23 09:27:36;;;;;;;13.10;2.50;;;18.10;99.90;;;;;;5092553;28;20031;-73
2021/09/23 09:30:22;;;;;;;2.92;1.83;;;18.10;99.90;;;;;;5091909;28;20101;-73
2021/09/23 09:32:59;;;;;;;4.97;2.05;;;18.00;99.90;;;;;;5093927;28;20044;-73
2021/09/23 09:35:30;;;;;;;7.70;2.65;;;18.10;99.90;;;;;;5075107;28;20046;-73
2021/09/23 09:37:58;;;;;;;5.60;2.13;;;17.90;99.90;;;;;;5093466;28;20044;-72
2021/09/23 09:40:27;;;;;;;5.78;2.03;;;17.90;99.90;;;;;;5093410;28;20116;-73
2021/09/23 09:42:54;;;;;;;9.63;2.67;;;18.00;99.90;;;;;;5093839;28;20376;-73
2021/09/23 09:45:28;;;;;;;11.02;2.67;;;18.00;99.90;;;;;;5093518;28;20040;-73
2021/09/23 09:47:55;;;;;;;5.97;2.22;;;18.00;99.90;;;;;;5093343;28;20097;-73
2021/09/23 09:50:26;;;;;;;5.95;2.17;;;18.00;99.90;;;;;;5093079;28;20070;-73
2021/09/23 09:53:01;;;;;;;5.00;2.17;;;18.00;99.90;;;;;;5093314;28;20492;-73
2021/09/23 09:55:39;;;;;;;10.77;2.42;;;17.90;99.90;;;;;;5093513;28;20051;-73
2021/09/23 09:58:05;;;;;;;4.88;1.65;;;18.00;99.90;;;;;;5093068;28;20046;-73
2021/09/23 10:00:33;;;;;;;5.88;1.73;;;17.90;99.90;;;;;;5091660;28;20044;-73
2021/09/23 10:02:59;;;;;;;8.68;2.67;;;17.90;99.90;;;;;;5093026;28;20126;-73
2021/09/23 10:05:25;;;;;;;9.02;2.60;;;17.80;99.90;;;;;;5093077;28;20044;-73
2021/09/23 10:07:57;;;;;;;6.28;1.80;;;17.80;99.90;;;;;;5092996;28;20044;-73
2021/09/23 10:10:26;;;;;;;3.80;2.23;;;17.80;99.90;;;;;;5092652;28;20044;-73
2021/09/23 10:12:58;;;;;;;9.07;1.80;;;17.70;99.90;;;;;;5091813;28;20040;-72
2021/09/23 10:15:24;;;;;;;6.90;1.75;;;17.70;99.90;;;;;;5093243;28;20032;-73
2021/09/23 10:17:52;;;;;;;4.78;1.98;;;17.60;99.90;;;;;;5092692;28;20040;-73
2021/09/23 10:20:20;;;;;;;4.88;2.00;;;17.60;99.90;;;;;;5092744;28;20086;-73
2021/09/23 10:22:46;;;;;;;8.20;2.28;;;17.50;99.90;;;;;;5092781;28;20119;-73
2021/09/23 10:25:15;;;;;;;14.60;2.45;;;17.50;99.90;;;;;;5075298;28;20093;-73
2021/09/23 10:28:01;;;;;;;5.90;1.90;;;17.60;99.90;;;;;;5093070;28;20036;-73
2021/09/23 10:30:41;;;;;;;8.43;2.10;;;17.50;99.90;;;;;;5092809;28;20117;-72
2021/09/23 10:33:07;;;;;;;12.45;2.17;;;17.60;99.90;;;;;;5092819;28;20488;-70
2021/09/23 10:35:34;;;;;;;5.30;2.22;;;17.60;99.90;;;;;;5091909;28;20558;-70
2021/09/23 10:38:06;;;;;;;10.85;2.40;;;17.80;99.90;;;;;;5093777;28;20048;-70
2021/09/23 10:40:34;;;;;;;9.52;1.83;;;17.90;99.90;;;;;;5096544;28;20126;-69
2021/09/23 10:43:09;;;;;;;7.85;1.77;;;17.90;99.90;;;;;;5096409;28;20040;-69
2021/09/23 10:45:35;;;;;;;7.88;2.33;;;17.90;99.90;;;;;;5096478;28;20123;-69
2021/09/23 10:48:03;;;;;;;6.90;1.45;;;18.00;99.90;;;;;;5078111;28;20048;-69
2021/09/23 10:50:32;;;;;;;8.80;2.28;;;18.00;99.90;;;;;;5095831;28;20083;-69
2021/09/23 10:52:58;;;;;;;13.77;2.60;;;18.00;99.90;;;;;;5096034;28;20042;-69
2021/09/23 10:55:26;;;;;;;9.20;2.80;;;18.00;99.90;;;;;;5096301;28;20067;-69
2021/09/23 10:57:53;;;;;;;10.30;2.20;;;18.00;99.90;;;;;;5096087;28;20044;-69
2021/09/23 11:00:26;;;;;;;4.38;1.92;;;18.00;99.90;;;;;;5095978;28;20036;-69
2021/09/23 11:02:53;;;;;;;8.68;2.00;;;18.00;99.90;;;;;;5096669;28;20072;-69
2021/09/23 11:05:20;;;;;;;7.07;2.33;;;17.90;99.90;;;;;;5094787;28;20040;-69
2021/09/23 11:07:47;;;;;;;8.32;1.83;;;17.90;99.90;;;;;;5096234;28;20048;-69
2021/09/23 11:10:20;;;;;;;10.50;1.88;;;17.90;99.90;;;;;;5095573;28;20051;-69
2021/09/23 11:12:48;;;;;;;7.45;2.40;;;17.80;99.90;;;;;;5077898;28;20047;-69
2021/09/23 11:15:17;;;;;;;8.07;2.20;;;17.70;99.90;;;;;;5094398;28;20051;-70
2021/09/23 11:17:43;;;;;;;8.65;2.20;;;17.70;99.90;;;;;;5095533;28;20174;-70
2021/09/23 11:20:19;;;;;;;8.68;1.90;;;17.60;99.90;;;;;;5095544;28;20530;-69
2021/09/23 11:22:51;;;;;;;11.77;2.47;;;17.60;99.90;;;;;;5096408;28;20040;-69
2021/09/23 11:25:20;;;;;;;9.23;2.20;;;17.50;99.90;;;;;;5095506;28;20051;-69
2021/09/23 11:27:47;;;;;;;14.13;2.95;;;17.40;99.90;;;;;;5095406;28;20032;-69
2021/09/23 11:30:16;;;;;;;12.07;2.85;;;17.50;99.90;;;;;;5095372;28;20043;-69
2021/09/23 11:32:53;;;;;;;9.98;2.20;;;17.50;99.90;;;;;;5095587;28;20085;-70
2021/09/23 11:35:22;;;;;;;11.18;3.05;;;17.40;99.90;;;;;;5095536;28;20059;-70
2021/09/23 11:37:49;;;;;;;11.65;2.65;;;17.40;99.90;;;;;;5095344;28;20036;-70
2021/09/23 11:40:23;;;;;;;13.20;3.00;;;17.30;99.90;;;;;;5095046;28;20154;-71
2021/09/23 11:42:49;;;;;;;10.88;2.97;;;17.40;99.90;;;;;;5095137;28;20036;-70
2021/09/23 11:45:21;;;;;;;11.50;2.80;;;17.40;99.90;;;;;;5095069;28;20040;-69
2021/09/23 11:48:07;;;;;;;9.88;2.53;;;17.50;99.90;;;;;;5095179;28;20094;-70
2021/09/23 11:50:41;;;;;;;10.60;3.35;;;17.50;99.90;;;;;;5093835;28;20047;-70
2021/09/23 11:53:10;;;;;;;9.93;2.70;;;17.50;99.90;;;;;;5094992;28;20043;-70
2021/09/23 11:55:55;;;;;;;10.82;3.00;;;17.50;99.90;;;;;;5093930;28;20036;-70
2021/09/23 11:58:21;;;;;;;10.35;2.60;;;17.50;99.90;;;;;;5089896;28;20052;-69
2021/09/23 12:00:49;;;;;;;11.63;2.63;;;17.50;99.90;;;;;;5094428;28;20496;-69
2021/09/23 12:03:17;;;;;;;12.57;3.78;;;17.50;99.90;;;;;;5094711;28;20032;-70
2021/09/23 12:05:44;;;;;;;10.40;3.22;;;17.60;99.90;;;;;;5093461;28;20400;-69
2021/09/23 12:08:13;;;;;;;8.38;2.28;;;17.60;99.90;;;;;;5094788;28;20040;-69
2021/09/23 12:10:46;;;;;;;11.07;2.85;;;17.80;99.90;;;;;;5094452;28;20114;-70
2021/09/23 12:13:13;;;;;;;7.40;2.80;;;17.80;99.90;;;;;;5094661;28;20068;-70
2021/09/23 12:15:39;;;;;;;7.00;2.65;;;17.90;99.90;;;;;;5093107;28;20111;-70
2021/09/23 12:18:09;;;;;;;9.90;3.05;;;18.00;99.90;;;;;;5094958;28;20123;-69
2021/09/23 12:20:43;;;;;;;7.07;2.58;;;18.10;99.90;;;;;;5094525;28;20123;-70
2021/09/23 12:23:29;;;;;;;9.05;2.70;;;18.00;99.90;;;;;;5094779;28;20042;-70
2021/09/23 12:26:05;;;;;;;7.32;2.38;;;18.00;99.90;;;;;;5094346;28;20036;-69
2021/09/23 12:28:33;;;;;;;7.47;2.40;;;18.10;99.90;;;;;;5092818;28;20473;-70
2021/09/23 12:31:03;;;;;;;12.25;3.42;;;18.20;99.90;;;;;;5094327;28;20070;-69
2021/09/23 12:33:29;;;;;;;8.75;2.47;;;18.20;99.90;;;;;;5093111;28;20082;-70
2021/09/23 12:36:13;;;;;;;6.50;2.08;;;18.20;99.90;;;;;;5094319;28;20036;-70